Time;durP1;ratioP1;P1;durP2;ratioP2;P2;SDS_P1;SDS_P2;PMS_P1;PMS_P2;Temp;Humidity;BMP_temperature;BMP_pressure;BME280_temperature;BME280_humidity;BME280_pressure;Samples;Min_cycle;Max_cycle;Signal;HPM_P1;HPM_P2
2021/08/13 00:01:20;;;;;;;;;;;;;;;-144.99;84.38;52252.44;5006369;28;19940;-75
2021/08/13 00:03:46;;;;;;;;;;;;;;;-144.99;84.71;52256.50;5009045;28;19937;-74
2021/08/13 00:06:12;;;;;;;;;;;;;;;-144.99;84.77;52264.66;4996923;28;19925;-76
2021/08/13 00:08:39;;;;;;;;;;;;;;;-144.99;84.72;52234.09;5023691;23;20363;-76
2021/08/13 00:11:05;;;;;;;;;;;;;;;-144.99;84.58;52289.13;4998566;28;19926;-79
2021/08/13 00:13:32;;;;;;;;;;;;;;;-144.99;84.59;52240.19;5007178;28;20300;-76
2021/08/13 00:15:58;;;;;;;;;;;;;;;-144.99;84.61;52225.94;5011832;28;20200;-79
2021/08/13 00:18:26;;;;;;;;;;;;;;;-144.99;84.76;52236.13;5013555;28;19930;-79
2021/08/13 00:20:52;;;;;;;;;;;;;;;-144.99;84.93;52246.31;5006199;28;19930;-80
2021/08/13 00:23:18;;;;;;;;;;;;;;;-144.99;84.89;52227.97;4997017;28;19926;-81
2021/08/13 00:25:45;;;;;;;;;;;;;;;-144.99;85.16;52242.22;5008828;28;19956;-82
2021/08/13 00:28:11;;;;;;;;;;;;;;;-144.99;85.54;52280.97;5019036;28;19932;-82
2021/08/13 00:30:37;;;;;;;;;;;;;;;-144.99;85.47;52219.81;4999690;28;19926;-81
2021/08/13 00:33:04;;;;;;;;;;;;;;;-144.99;85.77;52256.50;4990237;28;19937;-81
2021/08/13 00:35:31;;;;;;;;;;;;;;;-144.99;86.17;52213.69;5008029;28;19964;-81
2021/08/13 00:37:58;;;;;;;;;;;;;;;-144.99;86.07;52227.97;5002117;28;19956;-80
2021/08/13 00:40:24;;;;;;;;;;;;;;;-144.99;86.26;52240.19;5016727;28;19929;-82
2021/08/13 00:42:50;;;;;;;;;;;;;;;-144.99;86.53;52223.88;5015646;28;19930;-80
2021/08/13 00:45:17;;;;;;;;;;;;;;;-144.99;86.59;52215.75;5016732;28;19929;-80
2021/08/13 00:47:44;;;;;;;;;;;;;;;-144.99;86.69;52240.19;5014665;28;19936;-80
2021/08/13 00:50:11;;;;;;;;;;;;;;;-144.99;86.70;52240.19;5015981;28;19950;-79
2021/08/13 00:52:38;;;;;;;;;;;;;;;-144.99;86.64;52244.28;5009117;28;20043;-80
2021/08/13 00:55:05;;;;;;;;;;;;;;;-144.99;86.87;52268.72;4997249;28;20394;-81
2021/08/13 00:57:32;;;;;;;;;;;;;;;-144.99;86.98;52264.66;5001496;28;19948;-80
2021/08/13 00:59:58;;;;;;;;;;;;;;;-144.99;87.20;52240.19;5013309;28;20038;-82
2021/08/13 01:02:25;;;;;;;;;;;;;;;-144.99;86.92;52240.19;4997609;28;19949;-81
2021/08/13 01:04:51;;;;;;;;;;;;;;;-144.99;86.97;52227.97;4989140;28;19965;-82
2021/08/13 01:07:17;;;;;;;;;;;;;;;-144.99;87.13;52227.97;4984135;28;19956;-81
2021/08/13 01:09:45;;;;;;;;;;;;;;;-144.99;87.25;52276.88;4995003;28;19964;-82
2021/08/13 01:12:16;;;;;;;;;;;;;;;-144.99;87.30;52268.72;4988416;28;19925;-81
2021/08/13 01:14:47;;;;;;;;;;;;;;;-144.99;87.39;52264.66;5000966;28;19959;-81
2021/08/13 01:17:15;;;;;;;;;;;;;;;-144.99;87.29;52244.28;4999531;28;20353;-81
2021/08/13 01:19:45;;;;;;;;;;;;;;;-144.99;87.17;52248.34;4992822;28;19930;-80
2021/08/13 01:22:12;;;;;;;;;;;;;;;-144.99;87.40;52248.34;5010598;28;20254;-81
2021/08/13 01:24:41;;;;;;;;;;;;;;;-144.99;87.11;52244.28;5011031;28;19944;-80
2021/08/13 01:27:11;;;;;;;;;;;;;;;-144.99;87.53;52252.44;5010412;28;20049;-79
2021/08/13 01:29:41;;;;;;;;;;;;;;;-144.99;87.69;52250.38;4995292;28;20358;-79
2021/08/13 01:32:23;;;;;;;;;;;;;;;-144.99;87.77;52276.88;4985510;28;19926;-80
2021/08/13 01:34:53;;;;;;;;;;;;;;;-144.99;87.72;52207.59;4994863;28;19965;-79
2021/08/13 01:37:21;;;;;;;;;;;;;;;-144.99;87.24;52236.13;5006810;28;19948;-81
2021/08/13 01:39:48;;;;;;;;;;;;;;;-144.99;87.04;52236.13;4994737;28;19972;-79
2021/08/13 01:42:15;;;;;;;;;;;;;;;-144.99;87.42;52244.28;4991993;28;19965;-79
2021/08/13 01:44:43;;;;;;;;;;;;;;;-144.99;87.49;52260.56;5009952;28;20222;-77
2021/08/13 01:47:10;;;;;;;;;;;;;;;-144.99;87.40;52248.34;5008305;28;19945;-77
2021/08/13 01:49:36;;;;;;;;;;;;;;;-144.99;87.88;52252.44;5010015;28;19966;-77
2021/08/13 01:52:05;;;;;;;;;;;;;;;-144.99;87.89;52244.28;5010000;28;19937;-81
2021/08/13 01:54:31;;;;;;;;;;;;;;;-144.99;87.50;52203.50;5010585;28;19964;-79
2021/08/13 01:56:58;;;;;;;;;;;;;;;-144.99;87.79;52238.16;4993730;28;19949;-77
2021/08/13 01:59:24;;;;;;;;;;;;;;;-144.99;87.71;52280.97;5010240;28;19966;-77
2021/08/13 02:01:51;;;;;;;;;;;;;;;-144.99;88.33;52234.09;4997998;28;19948;-78
2021/08/13 02:04:19;;;;;;;;;;;;;;;-144.99;88.79;52244.28;4986632;28;19933;-78
2021/08/13 02:06:45;;;;;;;;;;;;;;;-144.99;89.48;52254.47;4971507;28;19963;-76
2021/08/13 02:09:14;;;;;;;;;;;;;;;-144.99;89.82;52252.44;4990249;28;19982;-80
2021/08/13 02:11:40;;;;;;;;;;;;;;;-144.99;90.48;52256.50;5004620;28;20260;-77
2021/08/13 02:14:07;;;;;;;;;;;;;;;-144.99;90.81;52244.28;5002593;28;19975;-78
2021/08/13 02:16:35;;;;;;;;;;;;;;;-144.99;91.45;52289.13;5003687;28;19936;-77
2021/08/13 02:19:04;;;;;;;;;;;;;;;-144.99;91.94;52252.44;4986521;28;20447;-78
2021/08/13 02:21:33;;;;;;;;;;;;;;;-144.99;92.09;52289.13;5009511;28;20435;-79
2021/08/13 02:23:59;;;;;;;;;;;;;;;-144.99;92.47;52248.34;5010044;28;19950;-78
2021/08/13 02:26:27;;;;;;;;;;;;;;;-144.99;92.44;52248.34;4996883;28;19964;-78
2021/08/13 02:28:54;;;;;;;;;;;;;;;-144.99;92.86;52293.19;5008656;28;19932;-77
2021/08/13 02:31:20;;;;;;;;;;;;;;;-144.99;92.56;52248.34;4983252;28;19975;-77
2021/08/13 02:33:46;;;;;;;;;;;;;;;-144.99;92.78;52289.13;4982901;28;20211;-77
2021/08/13 02:36:15;;;;;;;;;;;;;;;-144.99;92.77;52305.41;5007241;28;20415;-79
2021/08/13 02:38:47;;;;;;;;;;;;;;;-144.99;93.12;52219.81;4993338;28;19970;-78
2021/08/13 02:41:14;;;;;;;;;;;;;;;-144.99;93.22;52238.16;5008574;28;19994;-78
2021/08/13 02:43:43;;;;;;;;;;;;;;;-144.99;93.42;52227.97;5010542;28;19962;-77
2021/08/13 02:46:10;;;;;;;;;;;;;;;-144.99;93.24;52260.56;4991812;28;19960;-79
2021/08/13 02:48:39;;;;;;;;;;;;;;;-144.99;93.42;52252.44;5002448;28;19983;-78
2021/08/13 02:51:07;;;;;;;;;;;;;;;-144.99;93.33;52260.56;5009784;28;19961;-77
2021/08/13 02:53:36;;;;;;;;;;;;;;;-144.99;93.52;52256.50;5009747;28;19970;-77
2021/08/13 02:56:04;;;;;;;;;;;;;;;-144.99;93.50;52248.34;4990230;28;19989;-77
2021/08/13 02:58:33;;;;;;;;;;;;;;;-144.99;93.57;52240.19;5004749;28;19980;-77
2021/08/13 03:01:01;;;;;;;;;;;;;;;-144.99;93.99;52211.66;5003910;28;19970;-78
2021/08/13 03:03:30;;;;;;;;;;;;;;;-144.99;93.99;52266.69;4987426;28;19950;-78
2021/08/13 03:05:57;;;;;;;;;;;;;;;-144.99;94.42;52246.31;4975592;28;19955;-78
2021/08/13 03:08:23;;;;;;;;;;;;;;;-144.99;94.18;52317.66;4982313;28;19986;-77
2021/08/13 03:10:50;;;;;;;;;;;;;;;-144.99;95.15;52256.50;4996585;28;19976;-76
2021/08/13 03:13:17;;;;;;;;;;;;;;;-144.99;95.18;52272.81;5009116;28;19959;-77
2021/08/13 03:15:45;;;;;;;;;;;;;;;-144.99;95.34;52260.56;5009194;28;20394;-77
2021/08/13 03:18:13;;;;;;;;;;;;;;;-144.99;95.37;52276.88;4995544;28;19963;-77
2021/08/13 03:20:40;;;;;;;;;;;;;;;-144.99;95.27;52248.34;4996726;28;19970;-77
2021/08/13 03:23:07;;;;;;;;;;;;;;;-144.99;95.46;52264.66;5009381;28;19960;-78
2021/08/13 03:25:33;;;;;;;;;;;;;;;-144.99;95.77;52256.50;5009406;28;19967;-77
2021/08/13 03:28:00;;;;;;;;;;;;;;;-144.99;96.13;52301.34;5008750;28;20348;-76
2021/08/13 03:30:26;;;;;;;;;;;;;;;-144.99;96.69;52305.41;4993092;28;20214;-77
2021/08/13 03:32:54;;;;;;;;;;;;;;;-144.99;97.13;52301.34;4977200;28;19942;-80
2021/08/13 03:35:21;;;;;;;;;;;;;;;-144.99;97.37;52309.50;4998921;28;20106;-78
2021/08/13 03:37:48;;;;;;;;;;;;;;;-144.99;97.92;52252.44;5004323;28;19941;-79
2021/08/13 03:40:14;;;;;;;;;;;;;;;-144.99;98.28;52272.81;5008574;28;19943;-79
2021/08/13 03:42:40;;;;;;;;;;;;;;;-144.99;98.41;52234.09;5009238;28;20453;-78
2021/08/13 03:45:07;;;;;;;;;;;;;;;-144.99;98.54;52283.00;5009439;28;19964;-80
2021/08/13 03:47:33;;;;;;;;;;;;;;;-144.99;98.21;52289.13;5008449;28;20038;-78
2021/08/13 03:49:59;;;;;;;;;;;;;;;-144.99;98.47;52256.50;4999889;28;19977;-79
2021/08/13 03:52:27;;;;;;;;;;;;;;;-144.99;99.01;52256.50;4997279;28;19969;-77
2021/08/13 03:54:53;;;;;;;;;;;;;;;-144.99;99.53;52280.97;5009891;28;19960;-77
2021/08/13 03:57:19;;;;;;;;;;;;;;;-144.99;99.74;52264.66;4998316;28;19961;-77
2021/08/13 03:59:46;;;;;;;;;;;;;;;-144.99;100.00;52268.72;5012059;28;20434;-77
2021/08/13 04:02:12;;;;;;;;;;;;;;;-144.99;100.00;52268.72;4996575;28;19953;-79
2021/08/13 04:04:38;;;;;;;;;;;;;;;-144.99;100.00;52236.13;4987275;28;19952;-78
2021/08/13 04:07:05;;;;;;;;;;;;;;;-144.99;100.00;52297.25;4976186;28;19981;-78
2021/08/13 04:09:32;;;;;;;;;;;;;;;-144.99;100.00;52333.94;4991780;28;19985;-77
2021/08/13 04:11:59;;;;;;;;;;;;;;;-144.99;100.00;52293.19;5008649;28;19933;-77
2021/08/13 04:14:25;;;;;;;;;;;;;;;-144.99;100.00;52268.72;5011890;28;19971;-77
2021/08/13 04:16:51;;;;;;;;;;;;;;;-144.99;100.00;52252.44;5009465;28;20076;-79
2021/08/13 04:19:18;;;;;;;;;;;;;;;-144.99;100.00;52311.53;4992340;28;19975;-79
2021/08/13 04:21:44;;;;;;;;;;;;;;;-144.99;100.00;52289.13;5006625;28;20280;-79
2021/08/13 04:24:10;;;;;;;;;;;;;;;-144.99;100.00;52268.72;5004174;28;19958;-78
2021/08/13 04:26:38;;;;;;;;;;;;;;;-144.99;99.84;52266.69;4994704;28;19951;-78
2021/08/13 04:29:04;;;;;;;;;;;;;;;-144.99;99.50;52244.28;4991510;28;20463;-77
2021/08/13 04:31:31;;;;;;;;;;;;;;;-144.99;98.96;52276.88;4983317;28;19965;-77
2021/08/13 04:33:57;;;;;;;;;;;;;;;-144.99;98.79;52291.16;4986883;28;19973;-77
2021/08/13 04:36:23;;;;;;;;;;;;;;;-144.99;98.35;52258.53;5010229;28;19951;-78
2021/08/13 04:38:49;;;;;;;;;;;;;;;-144.99;98.35;52221.84;5007124;28;19978;-77
2021/08/13 04:41:16;;;;;;;;;;;;;;;-144.99;98.04;52248.34;5011300;28;19948;-78
2021/08/13 04:43:43;;;;;;;;;;;;;;;-144.99;97.81;52252.44;5011521;28;19963;-77
2021/08/13 04:46:10;;;;;;;;;;;;;;;-144.99;97.62;52276.88;5005396;28;19926;-78
2021/08/13 04:48:36;;;;;;;;;;;;;;;-144.99;97.55;52268.72;5005107;28;19966;-77
2021/08/13 04:51:02;;;;;;;;;;;;;;;-144.99;97.37;52293.19;4984816;28;20427;-76
2021/08/13 04:53:28;;;;;;;;;;;;;;;-144.99;97.32;52250.38;5011543;28;19962;-76
2021/08/13 04:55:55;;;;;;;;;;;;;;;-144.99;97.18;52252.44;5000261;28;19969;-77
2021/08/13 04:58:21;;;;;;;;;;;;;;;-144.99;97.12;52232.03;5005162;28;19987;-77
2021/08/13 05:00:49;;;;;;;;;;;;;;;-144.99;96.81;52252.44;4990405;28;20452;-78
2021/08/13 05:03:15;;;;;;;;;;;;;;;-144.99;96.56;52256.50;4991731;28;20366;-77
2021/08/13 05:05:42;;;;;;;;;;;;;;;-144.99;96.57;52285.03;4977613;28;19949;-77
2021/08/13 05:08:08;;;;;;;;;;;;;;;-144.99;96.59;52240.19;4975020;28;19930;-78
2021/08/13 05:10:37;;;;;;;;;;;;;;;-144.99;96.63;52240.19;4994547;28;19962;-79
2021/08/13 05:13:03;;;;;;;;;;;;;;;-144.99;96.61;52246.31;5011307;28;20444;-81
2021/08/13 05:15:30;;;;;;;;;;;;;;;-144.99;96.48;52264.66;5014061;28;20420;-80
2021/08/13 05:17:57;;;;;;;;;;;;;;;-144.99;96.14;52272.81;5002795;28;19951;-80
2021/08/13 05:20:25;;;;;;;;;;;;;;;-144.99;95.62;52217.78;4998457;28;19988;-79
2021/08/13 05:22:51;;;;;;;;;;;;;;;-144.99;95.22;52236.13;5011483;28;20426;-80
2021/08/13 05:25:17;;;;;;;;;;;;;;;-144.99;94.50;52276.88;4992712;28;19958;-78
2021/08/13 05:27:46;;;;;;;;;;;;;;;-144.99;94.36;52276.88;4991777;28;20399;-79
2021/08/13 05:30:13;;;;;;;;;;;;;;;-144.99;93.34;52268.72;4987535;28;20005;-79
2021/08/13 05:32:40;;;;;;;;;;;;;;;-144.99;93.21;52219.81;4979300;28;20050;-78
2021/08/13 05:35:09;;;;;;;;;;;;;;;-144.99;93.00;52242.22;5000059;28;20089;-79
2021/08/13 05:37:35;;;;;;;;;;;;;;;-144.99;92.56;52240.19;5007732;28;19959;-79
2021/08/13 05:40:01;;;;;;;;;;;;;;;-144.99;92.24;52248.34;5004221;28;20050;-82
2021/08/13 05:42:28;;;;;;;;;;;;;;;-144.99;91.88;52219.81;4995130;28;19929;-79
2021/08/13 05:44:54;;;;;;;;;;;;;;;-144.99;91.34;52280.97;5010681;28;19979;-78
2021/08/13 05:47:20;;;;;;;;;;;;;;;-144.99;91.15;52260.56;5010583;28;19979;-78
2021/08/13 05:49:46;;;;;;;;;;;;;;;-144.99;89.88;52240.19;5010041;28;20389;-79
2021/08/13 05:52:14;;;;;;;;;;;;;;;-144.99;89.39;52256.50;5010304;28;19993;-77
2021/08/13 05:54:40;;;;;;;;;;;;;;;-144.99;88.94;52217.78;5009854;28;19997;-78
2021/08/13 05:57:07;;;;;;;;;;;;;;;-144.99;88.07;52223.88;4993639;28;19984;-77
2021/08/13 05:59:33;;;;;;;;;;;;;;;-144.99;87.51;52219.81;5009853;28;19999;-78
2021/08/13 06:01:59;;;;;;;;;;;;;;;-144.99;86.72;52240.19;4996144;28;19966;-79
2021/08/13 06:04:26;;;;;;;;;;;;;;;-144.99;86.53;52209.63;4985604;28;20000;-78
2021/08/13 06:06:52;;;;;;;;;;;;;;;-144.99;86.12;52207.59;4972139;28;19992;-79
2021/08/13 06:09:20;;;;;;;;;;;;;;;-144.99;85.71;52221.84;4989926;28;19995;-78
2021/08/13 06:11:46;;;;;;;;;;;;;;;-144.99;85.08;52223.88;5022526;22;19997;-80
2021/08/13 06:14:12;;;;;;;;;;;;;;;-144.99;84.63;52179.06;5008868;28;19974;-79
2021/08/13 06:16:38;;;;;;;;;;;;;;;-144.99;83.81;52219.81;5011084;28;19950;-78
2021/08/13 06:19:05;;;;;;;;;;;;;;;-144.99;83.62;52225.94;5022964;28;19954;-78
2021/08/13 06:21:31;;;;;;;;;;;;;;;-144.99;82.95;52189.25;5021627;28;19942;-78
2021/08/13 06:23:58;;;;;;;;;;;;;;;-144.99;82.14;52221.84;5011540;28;19954;-77
2021/08/13 06:26:26;;;;;;;;;;;;;;;-144.99;81.35;52209.63;5011519;28;19961;-75
2021/08/13 06:28:52;;;;;;;;;;;;;;;-144.99;80.55;52215.75;5011298;28;19998;-75
2021/08/13 06:31:18;;;;;;;;;;;;;;;-144.99;80.17;52162.75;4989640;28;20308;-76
2021/08/13 06:33:45;;;;;;;;;;;;;;;-144.99;80.20;52236.13;4998565;28;19970;-75
2021/08/13 06:36:11;;;;;;;;;;;;;;;-144.99;80.06;52187.19;4991154;28;19961;-75
2021/08/13 06:38:37;;;;;;;;;;;;;;;-144.99;79.71;52193.31;4991275;28;19967;-75
2021/08/13 06:41:04;;;;;;;;;;;;;;;-144.99;79.08;52227.97;5004973;28;19993;-75
2021/08/13 06:43:32;;;;;;;;;;;;;;;-144.99;78.03;52215.75;5001865;28;20241;-76
2021/08/13 06:45:58;;;;;;;;;;;;;;;-144.99;77.56;52211.66;5010971;28;20334;-76
2021/08/13 06:48:24;;;;;;;;;;;;;;;-144.99;77.05;52215.75;5011332;28;19950;-76
2021/08/13 06:50:51;;;;;;;;;;;;;;;-144.99;77.22;52199.44;5011747;28;20400;-76
2021/08/13 06:53:17;;;;;;;;;;;;;;;-144.99;76.64;52187.19;5011650;28;19973;-76
2021/08/13 06:55:43;;;;;;;;;;;;;;;-144.99;76.94;52191.28;5006915;28;19959;-76
2021/08/13 06:58:09;;;;;;;;;;;;;;;-144.99;77.21;52179.06;4991922;28;19930;-76
2021/08/13 07:00:37;;;;;;;;;;;;;;;-144.99;75.65;52170.91;4994707;28;19964;-77
2021/08/13 07:03:04;;;;;;;;;;;;;;;-144.99;75.82;52187.19;5008763;28;19993;-77
2021/08/13 07:05:30;;;;;;;;;;;;;;;-144.99;74.35;52170.91;5003470;28;19977;-77
2021/08/13 07:07:56;;;;;;;;;;;;;;;-144.99;72.76;52211.66;5003950;28;19946;-76
2021/08/13 07:10:23;;;;;;;;;;;;;;;-144.99;73.44;52179.06;4995117;28;19971;-77
2021/08/13 07:12:49;;;;;;;;;;;;;;;-144.99;73.05;52187.19;4992335;28;20493;-78
2021/08/13 07:15:15;;;;;;;;;;;;;;;-144.99;73.07;52195.34;4995010;28;19968;-77
2021/08/13 07:17:43;;;;;;;;;;;;;;;-144.99;72.82;52179.06;5009789;28;19954;-77
2021/08/13 07:20:09;;;;;;;;;;;;;;;-144.99;72.22;52211.66;5000662;28;19972;-77
2021/08/13 07:22:36;;;;;;;;;;;;;;;-144.99;73.56;52183.13;5011270;28;19967;-77
2021/08/13 07:25:03;;;;;;;;;;;;;;;-144.99;72.92;52215.75;5014876;28;19925;-77
2021/08/13 07:27:29;;;;;;;;;;;;;;;-144.99;73.01;52170.91;5004599;28;19961;-77
2021/08/13 07:29:56;;;;;;;;;;;;;;;-144.99;72.69;52185.16;4996047;28;19942;-77
2021/08/13 07:32:22;;;;;;;;;;;;;;;-144.99;72.23;52179.06;5003351;28;19956;-76
2021/08/13 07:34:50;;;;;;;;;;;;;;;-144.99;70.58;52199.44;4995893;28;20424;-76
2021/08/13 07:37:17;;;;;;;;;;;;;;;-144.99;69.34;52199.44;4994749;28;19953;-75
2021/08/13 07:39:43;;;;;;;;;;;;;;;-144.99;69.13;52195.34;5001313;28;19950;-76
2021/08/13 07:42:10;;;;;;;;;;;;;;;-144.99;68.88;52154.59;5014724;28;19925;-76
2021/08/13 07:44:36;;;;;;;;;;;;;;;-144.99;68.66;52177.00;5008712;28;19988;-77
2021/08/13 07:47:03;;;;;;;;;;;;;;;-144.99;67.93;52207.59;4997960;28;19952;-77
2021/08/13 07:49:29;;;;;;;;;;;;;;;-144.99;68.95;52183.13;4996072;28;19974;-76
2021/08/13 07:51:56;;;;;;;;;;;;;;;-144.99;69.05;52201.47;4994808;28;19969;-75
2021/08/13 07:54:23;;;;;;;;;;;;;;;-144.99;69.27;52146.44;4996037;28;19926;-76
2021/08/13 07:56:49;;;;;;;;;;;;;;;-144.99;69.55;52162.75;5000835;28;19929;-75
2021/08/13 07:59:15;;;;;;;;;;;;;;;-144.99;69.34;52160.72;4995113;28;19933;-76
2021/08/13 08:01:42;;;;;;;;;;;;;;;-144.99;68.62;52193.31;4998852;28;19933;-76
2021/08/13 08:04:08;;;;;;;;;;;;;;;-144.99;69.02;52121.97;4999264;28;20436;-75
2021/08/13 08:06:34;;;;;;;;;;;;;;;-144.99;68.29;52174.97;4994109;28;19937;-75
2021/08/13 08:09:02;;;;;;;;;;;;;;;-144.99;68.20;52174.97;5003530;28;19949;-76
2021/08/13 08:11:28;;;;;;;;;;;;;;;-144.99;67.10;52154.59;4994740;28;19977;-76
2021/08/13 08:13:54;;;;;;;;;;;;;;;-144.99;67.59;52170.91;4994671;28;19973;-75
2021/08/13 08:16:21;;;;;;;;;;;;;;;-144.99;67.23;52179.06;4994550;28;19947;-75
2021/08/13 08:18:47;;;;;;;;;;;;;;;-144.99;67.27;52197.41;5006095;28;20091;-74
2021/08/13 08:21:14;;;;;;;;;;;;;;;-144.99;67.02;52170.91;4995204;28;20020;-76
2021/08/13 08:23:40;;;;;;;;;;;;;;;-144.99;66.77;52162.75;4984086;28;19932;-76
2021/08/13 08:26:08;;;;;;;;;;;;;;;-144.99;66.69;52136.25;4999239;28;19937;-76
2021/08/13 08:28:34;;;;;;;;;;;;;;;-144.99;65.60;52140.31;4997540;28;19926;-76
2021/08/13 08:31:00;;;;;;;;;;;;;;;-144.99;65.45;52158.66;4997256;28;20432;-77
2021/08/13 08:33:26;;;;;;;;;;;;;;;-144.99;66.34;52142.38;4997480;28;19933;-76
2021/08/13 08:35:53;;;;;;;;;;;;;;;-144.99;64.94;52152.56;4994413;28;20338;-76
2021/08/13 08:38:19;;;;;;;;;;;;;;;-144.99;64.42;52158.66;5001058;28;19930;-77
2021/08/13 08:40:45;;;;;;;;;;;;;;;-144.99;65.79;52132.19;4991678;28;19961;-76
2021/08/13 08:43:13;;;;;;;;;;;;;;;-144.99;65.39;52138.28;4994251;28;19930;-76
2021/08/13 08:45:40;;;;;;;;;;;;;;;-144.99;64.80;52146.44;5001212;28;19929;-76
2021/08/13 08:48:07;;;;;;;;;;;;;;;-144.99;64.51;52138.28;4993809;28;19926;-76
2021/08/13 08:50:35;;;;;;;;;;;;;;;-144.99;64.05;52117.91;4994331;28;20397;-76
2021/08/13 08:53:02;;;;;;;;;;;;;;;-144.99;62.87;52170.91;4996818;28;19926;-76
2021/08/13 08:55:29;;;;;;;;;;;;;;;-144.99;62.30;52113.84;5014394;28;19929;-75
2021/08/13 08:57:55;;;;;;;;;;;;;;;-144.99;62.35;52130.13;5003108;28;19937;-75
2021/08/13 09:00:24;;;;;;;;;;;;;;;-144.99;61.68;52077.16;4996840;28;20382;-75
2021/08/13 09:02:50;;;;;;;;;;;;;;;-144.99;60.86;52134.22;5005626;28;19926;-75
2021/08/13 09:05:17;;;;;;;;;;;;;;;-144.99;60.50;52121.97;4999277;28;19930;-76
2021/08/13 09:07:43;;;;;;;;;;;;;;;-144.99;61.62;52097.53;5004299;28;19937;-76
2021/08/13 09:10:11;;;;;;;;;;;;;;;-144.99;59.58;52097.53;4999327;28;20308;-75
2021/08/13 09:12:38;;;;;;;;;;;;;;;-144.99;58.63;52073.06;4994189;28;19933;-75
2021/08/13 09:15:06;;;;;;;;;;;;;;;-144.99;58.66;52109.75;4994534;28;19925;-75
2021/08/13 09:17:34;;;;;;;;;;;;;;;-144.99;58.34;52099.56;5001352;28;19930;-75
2021/08/13 09:20:00;;;;;;;;;;;;;;;-144.99;57.85;52099.56;4998599;28;19932;-75
2021/08/13 09:22:27;;;;;;;;;;;;;;;-144.99;57.08;52101.59;4994145;28;19934;-75
2021/08/13 09:24:54;;;;;;;;;;;;;;;-144.99;57.06;52103.66;4994864;28;20029;-75
2021/08/13 09:27:22;;;;;;;;;;;;;;;-144.99;56.76;52113.84;4993238;28;19956;-76
2021/08/13 09:30:08;;;;;;;;;;;;;;;-144.99;57.66;52109.75;4992681;28;19952;-76
2021/08/13 09:32:35;;;;;;;;;;;;;;;-144.99;57.18;52109.75;4995903;28;20103;-76
2021/08/13 09:35:02;;;;;;;;;;;;;;;-144.99;59.10;52146.44;4993793;28;19933;-78
2021/08/13 09:37:28;;;;;;;;;;;;;;;-144.99;60.07;52126.06;4994430;28;19926;-79
2021/08/13 09:39:56;;;;;;;;;;;;;;;-144.99;59.15;52170.91;4995183;28;19926;-79
2021/08/13 09:42:22;;;;;;;;;;;;;;;-144.99;60.59;52132.19;4996145;28;19926;-79
2021/08/13 09:44:59;;;;;;;;;;;;;;;-144.99;60.23;52130.13;5003341;28;19929;-79
2021/08/13 09:47:38;;;;;;;;;;;;;;;-144.99;60.70;52126.06;5014542;28;19932;-80
2021/08/13 09:50:07;;;;;;;;;;;;;;;-144.99;59.46;52158.66;5002228;28;19932;-77
2021/08/13 09:52:33;;;;;;;;;;;;;;;-144.99;59.58;52126.06;4993071;28;19989;-75
2021/08/13 09:55:07;;;;;;;;;;;;;;;-144.99;59.26;52097.53;4995561;28;19929;-77
2021/08/13 09:57:39;;;;;;;;;;;;;;;-144.99;58.93;52097.53;4980239;28;20483;-78
2021/08/13 10:00:06;;;;;;;;;;;;;;;-144.99;57.58;52117.91;5003367;28;20267;-77
2021/08/13 10:02:34;;;;;;;;;;;;;;;-144.99;58.06;52077.16;4994299;28;19956;-78
2021/08/13 10:05:01;;;;;;;;;;;;;;;-144.99;57.60;52099.56;5000639;28;19925;-77
2021/08/13 10:07:44;;;;;;;;;;;;;;;-144.99;57.75;52109.75;5003394;28;19926;-78
2021/08/13 10:10:11;;;;;;;;;;;;;;;-144.99;56.05;52091.41;4994750;28;19936;-77
2021/08/13 10:12:42;;;;;;;;;;;;;;;-144.99;56.52;52089.38;4993283;28;19926;-78
2021/08/13 10:15:09;;;;;;;;;;;;;;;-144.99;56.87;52097.53;5009436;28;19937;-77
2021/08/13 10:17:35;;;;;;;;;;;;;;;-144.99;56.25;52113.84;5001391;28;20397;-78
2021/08/13 10:20:02;;;;;;;;;;;;;;;-144.99;55.89;52105.69;5000965;28;20299;-75
2021/08/13 10:22:30;;;;;;;;;;;;;;;-144.99;57.12;52089.38;5000855;28;19945;-78
2021/08/13 10:24:57;;;;;;;;;;;;;;;-144.99;57.65;52128.09;4994357;28;20092;-78
2021/08/13 10:27:24;;;;;;;;;;;;;;;-144.99;57.77;52134.22;4994004;28;19936;-78
2021/08/13 10:29:50;;;;;;;;;;;;;;;-144.99;57.95;52126.06;4987783;28;20062;-78
2021/08/13 10:32:18;;;;;;;;;;;;;;;-144.99;56.94;52097.53;4999746;28;19930;-78
2021/08/13 10:34:45;;;;;;;;;;;;;;;-144.99;56.67;52085.31;5002492;28;20465;-78
2021/08/13 10:37:12;;;;;;;;;;;;;;;-144.99;56.36;52107.72;5013166;28;19963;-78
2021/08/13 10:39:40;;;;;;;;;;;;;;;-144.99;57.39;52081.22;5012487;28;19926;-77
2021/08/13 10:42:08;;;;;;;;;;;;;;;-144.99;56.63;52073.06;5013587;28;19926;-77
2021/08/13 10:44:37;;;;;;;;;;;;;;;-144.99;57.27;52089.38;5011549;28;20270;-77
2021/08/13 10:47:09;;;;;;;;;;;;;;;-144.99;56.79;52064.91;4992922;28;19933;-77
2021/08/13 10:49:37;;;;;;;;;;;;;;;-144.99;55.80;52056.78;4992933;28;19942;-77
2021/08/13 10:52:04;;;;;;;;;;;;;;;-144.99;55.52;52016.00;4992279;28;20393;-78
2021/08/13 10:54:37;;;;;;;;;;;;;;;-144.99;55.33;52028.22;4992585;28;19953;-77
2021/08/13 10:57:05;;;;;;;;;;;;;;;-144.99;54.91;51999.69;4984822;28;19984;-78
2021/08/13 10:59:50;;;;;;;;;;;;;;;-144.99;55.49;51999.69;4991954;28;19926;-79
2021/08/13 11:02:17;;;;;;;;;;;;;;;-144.99;56.16;52069.00;4993071;28;20081;-79
2021/08/13 11:04:44;;;;;;;;;;;;;;;-144.99;54.23;52040.47;4993300;28;20191;-78
2021/08/13 11:07:10;;;;;;;;;;;;;;;-144.99;53.27;52077.16;4992464;28;19964;-78
2021/08/13 11:09:37;;;;;;;;;;;;;;;-144.99;52.91;52052.69;4990560;28;19964;-78
2021/08/13 11:12:06;;;;;;;;;;;;;;;-144.99;54.04;52020.09;4992648;28;19932;-78
2021/08/13 11:14:34;;;;;;;;;;;;;;;-144.99;52.87;52020.09;4992985;28;19930;-78
2021/08/13 11:17:00;;;;;;;;;;;;;;;-144.99;53.94;52020.09;4990632;28;19933;-78
2021/08/13 11:19:27;;;;;;;;;;;;;;;-144.99;53.94;52044.53;4994597;28;19926;-77
2021/08/13 11:21:55;;;;;;;;;;;;;;;-144.99;53.61;52032.31;4997988;28;19930;-78
2021/08/13 11:24:22;;;;;;;;;;;;;;;-144.99;53.96;52050.66;4995405;28;19926;-78
2021/08/13 11:27:08;;;;;;;;;;;;;;;-144.99;53.97;52016.00;4992768;28;19927;-78
2021/08/13 11:29:37;;;;;;;;;;;;;;;-144.99;53.65;52046.56;5003440;28;19925;-78
2021/08/13 11:32:08;;;;;;;;;;;;;;;-144.99;53.46;52024.16;5000090;28;20367;-78
2021/08/13 11:34:44;;;;;;;;;;;;;;;-144.99;54.48;52097.53;4991926;28;20220;-78
2021/08/13 11:37:10;;;;;;;;;;;;;;;-144.99;54.29;52105.69;4991475;28;20006;-77
2021/08/13 11:39:38;;;;;;;;;;;;;;;-144.99;54.85;52138.28;4998746;28;19933;-78
2021/08/13 11:42:06;;;;;;;;;;;;;;;-144.99;55.95;52101.59;4997556;28;19988;-78
2021/08/13 11:44:33;;;;;;;;;;;;;;;-144.99;56.01;52162.75;4991939;28;19953;-78
2021/08/13 11:47:01;;;;;;;;;;;;;;;-144.99;56.38;52097.53;4990559;28;19955;-79
2021/08/13 11:49:28;;;;;;;;;;;;;;;-144.99;56.78;52073.06;4990076;28;19949;-78
2021/08/13 11:51:54;;;;;;;;;;;;;;;-144.99;57.53;52130.13;4987254;28;19966;-76
2021/08/13 11:54:27;;;;;;;;;;;;;;;-144.99;57.03;52056.78;4999738;28;19942;-76
2021/08/13 11:56:54;;;;;;;;;;;;;;;-144.99;56.43;52052.69;4993494;28;20420;-76
2021/08/13 11:59:20;;;;;;;;;;;;;;;-144.99;56.19;52154.59;4997014;28;19956;-76
2021/08/13 12:01:47;;;;;;;;;;;;;;;-144.99;56.42;52077.16;4993545;28;19965;-77
2021/08/13 12:04:19;;;;;;;;;;;;;;;-144.99;55.01;52113.84;4999075;28;20680;-77
2021/08/13 12:07:02;;;;;;;;;;;;;;;-144.99;55.54;52077.16;5002263;28;19925;-76
2021/08/13 12:09:29;;;;;;;;;;;;;;;-144.99;54.79;52146.44;4988752;28;19964;-75
2021/08/13 12:11:55;;;;;;;;;;;;;;;-144.99;55.24;52146.44;4996025;28;20310;-76
2021/08/13 12:14:22;;;;;;;;;;;;;;;-144.99;55.80;52170.91;4995920;28;19956;-75
2021/08/13 12:16:52;;;;;;;;;;;;;;;-144.99;56.29;52126.06;5032571;22;19996;-74
2021/08/13 12:19:19;;;;;;;;;;;;;;;-144.99;56.73;52146.44;5010998;28;19952;-75
2021/08/13 12:21:51;;;;;;;;;;;;;;;-144.99;56.89;52166.81;5014435;28;19970;-79
2021/08/13 12:24:28;;;;;;;;;;;;;;;-144.99;57.30;52185.16;5028861;28;19944;-77
2021/08/13 12:26:55;;;;;;;;;;;;;;;-144.99;57.46;52077.16;5016453;28;19987;-73